createdAt,value
2023-03-20T00:02:06.657Z,8.50
2023-03-20T00:04:34.237Z,8.40
2023-03-20T00:07:01.658Z,8.40
2023-03-20T00:09:28.632Z,8.30
2023-03-20T00:11:56.199Z,8.30
2023-03-20T00:14:24.956Z,8.20
2023-03-20T00:16:52.770Z,8.20
2023-03-20T00:19:24.811Z,8.20
2023-03-20T00:21:53.750Z,8.20
2023-03-20T00:24:21.177Z,8.10
2023-03-20T00:26:50.393Z,8.00
2023-03-20T00:29:22.142Z,8.00
2023-03-20T00:31:49.490Z,7.90
2023-03-20T00:34:19.569Z,7.90
2023-03-20T00:36:47.113Z,7.90
2023-03-20T00:39:14.029Z,7.80
2023-03-20T00:41:50.068Z,7.80
2023-03-20T00:44:34.229Z,7.70
2023-03-20T00:47:05.693Z,7.70
2023-03-20T00:49:35.754Z,7.70
2023-03-20T00:52:04.185Z,7.70
2023-03-20T00:54:32.199Z,7.60
2023-03-20T00:57:03.918Z,7.60
2023-03-20T00:59:36.157Z,7.60
2023-03-20T01:02:03.721Z,7.50
2023-03-20T01:04:42.426Z,7.50
2023-03-20T01:07:14.852Z,7.50
2023-03-20T01:09:41.960Z,7.50
2023-03-20T01:12:12.564Z,7.40
2023-03-20T01:14:42.007Z,7.40
2023-03-20T01:17:28.876Z,7.30
2023-03-20T01:19:55.951Z,7.30
2023-03-20T01:22:23.490Z,7.30
2023-03-20T01:24:50.434Z,7.40
2023-03-20T01:27:19.826Z,7.30
2023-03-20T01:29:47.167Z,7.30
2023-03-20T01:32:17.427Z,7.30
2023-03-20T01:34:48.490Z,7.30
2023-03-20T01:37:22.597Z,7.30
2023-03-20T01:39:50.345Z,7.30
2023-03-20T01:42:18.270Z,7.30
2023-03-20T01:44:45.708Z,7.30
2023-03-20T01:47:21.097Z,7.30
2023-03-20T01:50:26.978Z,7.30
2023-03-20T01:53:13.612Z,7.30
2023-03-20T01:55:47.444Z,7.20
2023-03-20T01:58:24.257Z,7.20
2023-03-20T02:00:51.844Z,7.10
2023-03-20T02:03:21.209Z,7.10
2023-03-20T02:06:09.052Z,7.00
2023-03-20T02:08:59.637Z,7.00
2023-03-20T02:11:30.880Z,7.00
2023-03-20T02:14:00.997Z,7.00
2023-03-20T02:16:33.946Z,7.10
2023-03-20T02:19:27.809Z,7.00
2023-03-20T02:22:31.313Z,7.10
2023-03-20T02:25:23.087Z,7.10
2023-03-20T02:28:28.440Z,7.00
2023-03-20T02:31:29.762Z,7.00
2023-03-20T02:34:24.532Z,7.00
2023-03-20T02:37:13.325Z,7.10
2023-03-20T02:40:10.409Z,7.00
2023-03-20T02:42:51.285Z,7.00
2023-03-20T02:45:27.847Z,7.00
2023-03-20T02:48:26.134Z,7.00
2023-03-20T02:51:04.750Z,7.00
2023-03-20T02:53:54.067Z,7.00
2023-03-20T02:56:49.411Z,7.00
2023-03-20T02:59:45.622Z,7.00
2023-03-20T03:02:37.565Z,7.00
2023-03-20T03:05:13.569Z,7.00
2023-03-20T03:07:43.999Z,7.00
2023-03-20T03:10:36.275Z,6.90
2023-03-20T03:13:07.813Z,6.80
2023-03-20T03:15:39.767Z,6.90
2023-03-20T03:18:11.476Z,6.90
2023-03-20T03:20:39.468Z,6.90
2023-03-20T03:23:07.940Z,6.80
2023-03-20T03:25:41.497Z,6.90
2023-03-20T03:28:23.125Z,6.80
2023-03-20T03:30:53.485Z,6.80
2023-03-20T03:33:25.011Z,6.70
2023-03-20T03:36:01.902Z,6.70
2023-03-20T03:38:57.040Z,6.70
2023-03-20T03:41:41.341Z,6.70
2023-03-20T03:44:28.368Z,6.60
2023-03-20T03:47:17.708Z,6.60
2023-03-20T03:49:51.149Z,6.70
2023-03-20T03:52:23.571Z,6.70
2023-03-20T03:55:32.688Z,6.70
2023-03-20T03:58:32.353Z,6.70
2023-03-20T04:01:01.514Z,6.70
2023-03-20T04:03:35.446Z,6.70
2023-03-20T04:06:04.461Z,6.70
2023-03-20T04:08:31.426Z,6.70
2023-03-20T04:11:00.190Z,6.70
2023-03-20T04:13:27.169Z,6.60
2023-03-20T04:15:54.194Z,6.60
2023-03-20T04:18:21.546Z,6.70
2023-03-20T04:20:48.926Z,6.70
2023-03-20T04:23:16.906Z,6.60
2023-03-20T04:25:44.075Z,6.70
2023-03-20T04:28:11.914Z,6.60
2023-03-20T04:31:01.589Z,6.60
2023-03-20T04:33:44.483Z,6.60
2023-03-20T04:36:48.056Z,6.60
2023-03-20T04:39:17.400Z,6.60
2023-03-20T04:41:44.877Z,6.60
2023-03-20T04:44:12.089Z,6.60
2023-03-20T04:46:41.572Z,6.60
2023-03-20T04:49:14.965Z,6.70
2023-03-20T04:51:42.409Z,6.70
2023-03-20T04:54:11.420Z,6.70
2023-03-20T04:56:38.759Z,6.70
2023-03-20T04:59:15.275Z,6.70
2023-03-20T05:01:42.807Z,6.70
2023-03-20T05:04:10.146Z,6.80
2023-03-20T05:06:37.425Z,6.70
2023-03-20T05:09:04.666Z,6.70
2023-03-20T05:11:33.608Z,6.70
2023-03-20T05:14:21.026Z,6.80
2023-03-20T05:17:23.482Z,6.80
2023-03-20T05:20:11.054Z,6.70
2023-03-20T05:23:01.020Z,6.70
2023-03-20T05:25:53.983Z,6.80
2023-03-20T05:28:47.240Z,6.70
2023-03-20T05:31:23.638Z,6.70
2023-03-20T05:33:50.687Z,6.70
2023-03-20T05:36:38.320Z,6.60
2023-03-20T05:39:34.489Z,6.60
2023-03-20T05:42:31.702Z,6.60
2023-03-20T05:45:27.823Z,6.60
2023-03-20T05:48:15.053Z,6.60
2023-03-20T05:50:42.147Z,6.60
2023-03-20T05:53:27.702Z,6.60
2023-03-20T05:56:04.145Z,6.70
2023-03-20T05:58:54.191Z,6.60
2023-03-20T06:01:41.348Z,6.70
2023-03-20T06:04:19.832Z,6.70
2023-03-20T06:07:06.318Z,6.70
2023-03-20T06:09:34.440Z,6.60
2023-03-20T06:12:07.299Z,6.70
2023-03-20T06:14:34.541Z,6.70
2023-03-20T06:17:06.160Z,6.60
2023-03-20T06:19:37.047Z,6.70
2023-03-20T06:22:04.399Z,6.70
2023-03-20T06:24:36.466Z,6.70
2023-03-20T06:27:03.713Z,6.70
2023-03-20T06:29:37.240Z,6.80
2023-03-20T06:32:14.792Z,6.80
2023-03-20T06:34:42.646Z,6.80
2023-03-20T06:37:10.117Z,6.70
2023-03-20T06:39:37.169Z,6.80
2023-03-20T06:42:07.124Z,6.80
2023-03-20T06:44:34.372Z,6.80
2023-03-20T06:47:03.351Z,6.80
2023-03-20T06:49:31.611Z,6.80
2023-03-20T06:51:59.494Z,6.90
2023-03-20T06:54:27.709Z,6.90
2023-03-20T06:56:55.391Z,6.90
2023-03-20T06:59:22.628Z,7.00
2023-03-20T07:01:52.875Z,7.00
2023-03-20T07:04:23.220Z,7.00
2023-03-20T07:06:54.499Z,7.10
2023-03-20T07:09:22.286Z,7.10
2023-03-20T07:11:49.360Z,7.10
2023-03-20T07:14:16.864Z,7.10
2023-03-20T07:16:49.260Z,7.10
2023-03-20T07:19:18.766Z,7.20
2023-03-20T07:21:49.655Z,7.20
2023-03-20T07:24:18.013Z,7.20
2023-03-20T07:26:45.875Z,7.20
2023-03-20T07:29:14.173Z,7.20
2023-03-20T07:31:41.966Z,7.30
2023-03-20T07:34:13.422Z,7.30
2023-03-20T07:36:42.474Z,7.30
2023-03-20T07:39:12.109Z,7.30
2023-03-20T07:41:43.330Z,7.30
2023-03-20T07:44:20.744Z,7.30
2023-03-20T07:46:53.537Z,7.40
2023-03-20T07:49:23.426Z,7.40
2023-03-20T07:51:51.210Z,7.40
2023-03-20T07:54:18.487Z,7.40
2023-03-20T07:56:45.566Z,7.40
2023-03-20T07:59:13.610Z,7.40
2023-03-20T08:01:40.728Z,7.50
2023-03-20T08:04:07.869Z,7.50
2023-03-20T08:06:34.925Z,7.50
2023-03-20T08:09:02.245Z,7.60
2023-03-20T08:11:29.216Z,7.60
2023-03-20T08:13:56.276Z,7.60
2023-03-20T08:16:23.311Z,7.70
2023-03-20T08:18:50.872Z,7.70
2023-03-20T08:21:17.943Z,7.70
2023-03-20T08:23:44.905Z,7.70
2023-03-20T08:26:12.672Z,7.70
2023-03-20T08:28:47.688Z,7.70
2023-03-20T08:31:17.860Z,7.70
2023-03-20T08:33:46.421Z,7.70
2023-03-20T08:36:15.673Z,7.70
2023-03-20T08:38:43.366Z,7.60
2023-03-20T08:41:10.412Z,7.60
2023-03-20T08:43:40.296Z,7.50
2023-03-20T08:46:08.102Z,7.50
2023-03-20T08:48:36.249Z,7.50
2023-03-20T08:51:03.709Z,7.40
2023-03-20T08:53:30.759Z,7.40
2023-03-20T08:55:57.714Z,7.50
2023-03-20T08:58:25.020Z,7.50
2023-03-20T09:00:51.993Z,7.50
2023-03-20T09:03:21.161Z,7.50
2023-03-20T09:05:51.067Z,7.40
2023-03-20T09:08:18.450Z,7.40
2023-03-20T09:10:48.361Z,7.40
2023-03-20T09:13:26.628Z,7.40
2023-03-20T09:15:55.457Z,7.50
2023-03-20T09:18:22.696Z,7.50
2023-03-20T09:20:49.963Z,7.50
2023-03-20T09:23:17.610Z,7.50
2023-03-20T09:25:44.674Z,7.50
2023-03-20T09:28:11.625Z,7.60
2023-03-20T09:30:39.537Z,7.50
2023-03-20T09:33:06.703Z,7.60
2023-03-20T09:35:34.580Z,7.60
2023-03-20T09:38:01.673Z,7.60
2023-03-20T09:40:38.025Z,7.60
2023-03-20T09:43:13.991Z,7.60
2023-03-20T09:45:56.242Z,7.60
2023-03-20T09:48:47.599Z,7.70
2023-03-20T09:51:40.421Z,7.80
2023-03-20T09:54:13.230Z,7.70
2023-03-20T09:56:41.830Z,7.90
2023-03-20T09:59:14.445Z,7.80
2023-03-20T10:02:07.868Z,7.90
2023-03-20T10:04:36.985Z,8.00
2023-03-20T10:07:11.856Z,8.00
2023-03-20T10:09:38.951Z,8.10
2023-03-20T10:12:30.294Z,8.20
2023-03-20T10:15:00.137Z,8.10
2023-03-20T10:18:09.782Z,8.30
2023-03-20T10:20:59.726Z,8.40
2023-03-20T10:23:57.314Z,8.60
2023-03-20T10:26:24.902Z,8.70
2023-03-20T10:29:21.974Z,8.70
2023-03-20T10:32:07.331Z,8.70
2023-03-20T10:35:09.683Z,8.70
2023-03-20T10:37:49.995Z,8.50
2023-03-20T10:40:27.135Z,8.50
2023-03-20T10:43:11.658Z,8.60
2023-03-20T10:45:48.414Z,8.60
2023-03-20T10:48:22.821Z,8.70
2023-03-20T10:50:59.050Z,8.70
2023-03-20T10:53:30.992Z,8.80
2023-03-20T10:56:03.132Z,8.60
2023-03-20T10:58:41.666Z,8.70
2023-03-20T11:01:09.915Z,8.70
2023-03-20T11:03:39.949Z,8.70
2023-03-20T11:06:17.385Z,8.70
2023-03-20T11:08:52.678Z,8.80
2023-03-20T11:11:28.254Z,8.90
2023-03-20T11:13:55.507Z,9.00
2023-03-20T11:16:36.863Z,8.90
2023-03-20T11:19:26.177Z,9.00
2023-03-20T11:21:56.588Z,9.00
2023-03-20T11:24:32.651Z,9.10
2023-03-20T11:34:38.715Z,9.20
2023-03-20T11:37:23.984Z,9.40
2023-03-20T11:40:17.775Z,9.40
2023-03-20T11:42:56.069Z,9.50
2023-03-20T11:45:24.076Z,9.50
2023-03-20T11:47:53.492Z,9.60
2023-03-20T11:50:44.416Z,9.70
2023-03-20T11:53:34.056Z,9.80
2023-03-20T11:56:09.166Z,10.00
2023-03-20T11:58:51.173Z,9.80
2023-03-20T12:01:18.119Z,10.00
2023-03-20T12:03:55.726Z,10.10
2023-03-20T12:06:37.434Z,9.90
2023-03-20T12:09:13.054Z,10.00
2023-03-20T12:11:52.966Z,10.00
2023-03-20T12:14:56.606Z,9.90
2023-03-20T12:17:40.457Z,9.90
2023-03-20T12:20:21.212Z,9.80
2023-03-20T12:22:59.523Z,10.00
2023-03-20T12:25:54.346Z,10.00
2023-03-20T12:28:33.011Z,10.00
2023-03-20T12:31:14.889Z,10.10
2023-03-20T12:33:59.188Z,10.00
2023-03-20T12:36:36.132Z,10.00
2023-03-20T12:39:12.037Z,10.10
2023-03-20T12:41:41.287Z,10.10
2023-03-20T12:44:39.733Z,10.10
2023-03-20T12:47:27.068Z,10.20
2023-03-20T12:50:04.648Z,10.20
2023-03-20T12:52:41.246Z,10.20
2023-03-20T12:55:36.036Z,10.30
2023-03-20T12:58:47.431Z,10.40
2023-03-20T13:01:21.369Z,10.40
2023-03-20T13:04:20.797Z,10.40
2023-03-20T13:06:55.648Z,10.40
2023-03-20T13:09:44.725Z,10.40
2023-03-20T13:12:32.846Z,10.40
2023-03-20T13:15:20.700Z,10.30
2023-03-20T13:18:00.649Z,10.40
2023-03-20T13:20:34.625Z,10.40
2023-03-20T13:23:20.044Z,10.40
2023-03-20T13:26:23.008Z,10.40
2023-03-20T13:29:14.749Z,10.30
2023-03-20T13:31:55.732Z,10.20
2023-03-20T13:34:33.261Z,10.20
2023-03-20T13:37:23.815Z,10.20
2023-03-20T13:40:16.935Z,10.10
2023-03-20T13:42:58.350Z,10.00
2023-03-20T13:45:43.836Z,10.00
2023-03-20T13:48:19.635Z,9.90
2023-03-20T13:50:59.702Z,9.90
2023-03-20T13:53:30.668Z,9.80
2023-03-20T13:56:31.661Z,9.90
2023-03-20T13:59:03.017Z,9.90
2023-03-20T14:01:51.072Z,9.80
2023-03-20T14:04:22.883Z,9.80
2023-03-20T14:06:53.940Z,9.90
2023-03-20T14:09:33.379Z,9.90
2023-03-20T14:12:05.096Z,9.90
2023-03-20T14:14:33.391Z,9.90
2023-03-20T14:17:22.624Z,9.90
2023-03-20T14:19:51.574Z,9.90
2023-03-20T14:22:29.542Z,9.80
2023-03-20T14:24:59.877Z,9.80
2023-03-20T14:27:43.182Z,9.80
2023-03-20T14:30:31.448Z,9.90
2023-03-20T14:33:05.975Z,9.90
2023-03-20T14:35:49.400Z,10.00
2023-03-20T14:38:36.128Z,10.00
2023-03-20T14:41:06.605Z,9.90
2023-03-20T14:43:52.742Z,10.00
2023-03-20T14:46:41.365Z,10.00
2023-03-20T14:49:38.465Z,10.10
2023-03-20T14:52:36.340Z,10.10
2023-03-20T14:55:21.316Z,10.20
2023-03-20T14:57:56.490Z,10.20
2023-03-20T15:00:28.244Z,10.20
2023-03-20T15:03:10.721Z,10.20
2023-03-20T15:05:39.560Z,10.20
2023-03-20T15:08:25.126Z,10.20
2023-03-20T15:10:56.711Z,10.30
2023-03-20T15:13:25.172Z,10.30
2023-03-20T15:16:05.253Z,10.30
2023-03-20T15:18:38.760Z,10.40
2023-03-20T15:21:16.324Z,10.30
2023-03-20T15:23:44.499Z,10.30
2023-03-20T15:26:14.162Z,10.30
2023-03-20T15:28:43.112Z,10.40
2023-03-20T15:31:21.974Z,10.40
2023-03-20T15:33:49.327Z,10.30
2023-03-20T15:36:19.238Z,10.40
2023-03-20T15:38:47.647Z,10.40
2023-03-20T15:41:29.757Z,10.40
2023-03-20T15:44:16.544Z,10.40
2023-03-20T15:47:02.052Z,10.40
2023-03-20T15:49:31.617Z,10.40
2023-03-20T15:52:02.447Z,10.50
2023-03-20T15:54:29.619Z,10.50
2023-03-20T15:57:00.833Z,10.50
2023-03-20T15:59:31.603Z,10.50
2023-03-20T16:02:01.023Z,10.50
2023-03-20T16:04:28.709Z,10.50
2023-03-20T16:07:00.540Z,10.50
2023-03-20T16:09:27.805Z,10.50
2023-03-20T16:12:13.428Z,10.50
2023-03-20T16:14:41.138Z,10.50
2023-03-20T16:17:08.394Z,10.50
2023-03-20T16:19:35.315Z,10.60
2023-03-20T16:22:14.089Z,10.50
2023-03-20T16:24:41.756Z,10.50
2023-03-20T16:27:09.952Z,10.50
2023-03-20T16:29:42.695Z,10.50
2023-03-20T16:32:32.030Z,10.50
2023-03-20T16:35:01.478Z,10.60
2023-03-20T16:37:37.402Z,10.60
2023-03-20T16:40:15.008Z,10.50
2023-03-20T16:42:42.410Z,10.50
2023-03-20T16:45:33.238Z,10.50
2023-03-20T16:48:13.049Z,10.50
2023-03-20T16:50:41.767Z,10.50
2023-03-20T16:53:16.571Z,10.50
2023-03-20T16:55:49.097Z,10.50
2023-03-20T16:58:23.094Z,10.50
2023-03-20T17:01:03.537Z,10.50
2023-03-20T17:03:49.860Z,10.50
2023-03-20T17:06:20.701Z,10.50
2023-03-20T17:08:53.451Z,10.50
2023-03-20T17:11:29.881Z,10.50
2023-03-20T17:13:56.946Z,10.60
2023-03-20T17:16:25.712Z,10.60
2023-03-20T17:19:05.753Z,10.60
2023-03-20T17:21:32.958Z,10.60
2023-03-20T17:24:00.721Z,10.60
2023-03-20T17:26:27.966Z,10.60
2023-03-20T17:28:55.346Z,10.60
2023-03-20T17:31:22.401Z,10.60
2023-03-20T17:33:49.335Z,10.60
2023-03-20T17:36:18.481Z,10.50
2023-03-20T17:38:45.449Z,10.60
2023-03-20T17:41:16.998Z,10.60
2023-03-20T17:43:44.644Z,10.60
2023-03-20T17:46:24.234Z,10.50
2023-03-20T17:48:52.785Z,10.50
2023-03-20T17:51:19.804Z,10.50
2023-03-20T17:53:46.724Z,10.50
2023-03-20T17:56:15.620Z,10.50
2023-03-20T17:58:45.800Z,10.50
2023-03-20T18:01:13.600Z,10.50
2023-03-20T18:03:41.306Z,10.50
2023-03-20T18:06:15.911Z,10.50
2023-03-20T18:08:42.896Z,10.60
2023-03-20T18:11:09.864Z,10.60
2023-03-20T18:13:36.807Z,10.60
2023-03-20T18:16:04.012Z,10.60
2023-03-20T18:18:31.098Z,10.60
2023-03-20T18:20:59.476Z,10.70
2023-03-20T18:23:26.376Z,10.60
2023-03-20T18:25:53.391Z,10.60
2023-03-20T18:28:23.734Z,10.60
2023-03-20T18:30:51.669Z,10.60
2023-03-20T18:33:19.378Z,10.60
2023-03-20T18:35:46.988Z,10.60
2023-03-20T18:38:14.472Z,10.60
2023-03-20T18:40:43.711Z,10.60
2023-03-20T18:43:11.192Z,10.60
2023-03-20T18:45:39.990Z,10.60
2023-03-20T18:48:10.731Z,10.60
2023-03-20T18:50:41.697Z,10.60
2023-03-20T18:53:10.490Z,10.50
2023-03-20T18:55:41.232Z,10.50
2023-03-20T18:58:26.454Z,10.40
2023-03-20T19:00:55.924Z,10.40
2023-03-20T19:03:24.614Z,10.40
2023-03-20T19:05:54.113Z,10.30
2023-03-20T19:08:21.602Z,10.30
2023-03-20T19:10:49.072Z,10.30
2023-03-20T19:13:18.584Z,10.30
2023-03-20T19:15:46.525Z,10.30
2023-03-20T19:18:26.111Z,10.30
2023-03-20T19:20:58.173Z,10.30
2023-03-20T19:23:28.904Z,10.30
2023-03-20T19:25:56.649Z,10.30
2023-03-20T19:28:37.671Z,10.30
2023-03-20T19:31:06.759Z,10.30
2023-03-20T19:33:34.144Z,10.20
2023-03-20T19:36:04.030Z,10.20
2023-03-20T19:38:32.712Z,10.20
2023-03-20T19:41:01.817Z,10.10
2023-03-20T19:43:29.388Z,10.10
2023-03-20T19:45:59.085Z,10.10
2023-03-20T19:48:49.676Z,10.10
2023-03-20T19:51:23.630Z,10.10
2023-03-20T19:53:51.038Z,10.10
2023-03-20T19:56:20.092Z,10.10
2023-03-20T19:58:47.805Z,10.10
2023-03-20T20:01:24.210Z,10.10
2023-03-20T20:03:53.696Z,10.10
2023-03-20T20:06:22.770Z,10.20
2023-03-20T20:08:52.295Z,10.20
2023-03-20T20:11:20.899Z,10.20
2023-03-20T20:14:05.734Z,10.20
2023-03-20T20:16:43.253Z,10.30
2023-03-20T20:19:11.769Z,10.30
2023-03-20T20:24:26.446Z,10.30
2023-03-20T20:27:14.664Z,10.40
2023-03-20T20:29:43.089Z,10.40
2023-03-20T20:32:10.340Z,10.40
2023-03-20T20:38:19.769Z,10.40
2023-03-20T20:40:19.511Z,10.30
2023-03-20T20:42:47.476Z,10.30
2023-03-20T20:45:15.403Z,10.30
2023-03-20T20:47:44.854Z,10.30
2023-03-20T20:50:16.948Z,10.40
2023-03-20T20:52:44.333Z,10.30
2023-03-20T20:55:25.048Z,10.30
2023-03-20T20:57:53.516Z,10.30
2023-03-20T21:00:27.351Z,10.30
2023-03-20T21:02:56.503Z,10.30
2023-03-20T21:05:23.573Z,10.30
2023-03-20T21:07:52.500Z,10.30
2023-03-20T21:10:21.846Z,10.30
2023-03-20T21:12:59.164Z,10.30
2023-03-20T21:15:27.587Z,10.30
2023-03-20T21:18:01.054Z,10.30
2023-03-20T21:20:29.898Z,10.30
2023-03-20T21:22:56.956Z,10.30
2023-03-20T21:25:38.737Z,10.30
2023-03-20T21:28:06.801Z,10.30
2023-03-20T21:30:34.324Z,10.30
2023-03-20T21:33:01.795Z,10.30
2023-03-20T21:35:30.023Z,10.30
2023-03-20T21:38:51.240Z,10.30
2023-03-20T21:40:45.336Z,10.30
2023-03-20T21:43:13.086Z,10.30
2023-03-20T21:49:30.034Z,10.30
2023-03-20T21:57:39.564Z,10.20
2023-03-20T22:00:31.828Z,10.20
2023-03-20T22:02:28.143Z,10.20
2023-03-20T22:14:19.112Z,10.20
2023-03-20T22:19:59.382Z,10.20
2023-03-20T22:22:55.246Z,10.20
2023-03-20T22:34:05.994Z,10.00
2023-03-20T22:36:33.216Z,10.00
2023-03-20T22:39:14.268Z,9.90
2023-03-20T22:46:55.647Z,9.80
2023-03-20T22:49:22.672Z,9.80
2023-03-20T22:52:08.325Z,9.80
2023-03-20T22:54:38.605Z,9.80
2023-03-20T22:57:05.625Z,9.70
2023-03-20T22:59:32.734Z,9.70
2023-03-20T23:01:59.741Z,9.70
2023-03-20T23:04:29.607Z,9.70
2023-03-20T23:06:57.024Z,9.70
2023-03-20T23:09:24.037Z,9.70
2023-03-20T23:11:51.073Z,9.70
2023-03-20T23:14:21.553Z,9.70
2023-03-20T23:16:49.921Z,9.70
2023-03-20T23:19:17.987Z,9.70
2023-03-20T23:21:45.034Z,9.70
2023-03-20T23:24:12.032Z,9.70
2023-03-20T23:26:39.058Z,9.70
2023-03-20T23:29:06.627Z,9.80
2023-03-20T23:31:33.823Z,9.80
2023-03-20T23:34:00.946Z,9.80
2023-03-20T23:36:36.400Z,9.80
2023-03-20T23:39:08.262Z,9.80
2023-03-20T23:44:23.260Z,9.80
2023-03-20T23:46:50.340Z,9.80
2023-03-20T23:49:17.513Z,9.80
2023-03-20T23:51:44.438Z,9.80
2023-03-20T23:54:12.443Z,9.80
2023-03-20T23:56:39.614Z,9.80
